Time;durP1;ratioP1;P1;durP2;ratioP2;P2;SDS_P1;SDS_P2;PMS_P1;PMS_P2;Temp;Humidity;BMP_temperature;BMP_pressure;BME280_temperature;BME280_humidity;BME280_pressure;Samples;Min_cycle;Max_cycle;Signal;HPM_P1;HPM_P2
2021/01/04 00:02:08;;;;;;;16.42;10.00;;;;;;;0.74;90.83;101763.29;1746201;81;21164;-83
2021/01/04 00:04:57;;;;;;;16.57;10.38;;;;;;;0.72;90.73;101767.05;1746285;82;21240;-83
2021/01/04 00:08:09;;;;;;;15.00;9.93;;;;;;;0.71;90.66;101759.14;1811114;78;22749;-83
2021/01/04 00:11:10;;;;;;;18.65;11.20;;;;;;;0.67;90.80;101759.68;1795862;79;21187;-82
2021/01/04 00:14:04;;;;;;;17.00;11.10;;;;;;;0.68;90.81;101757.62;1797066;79;22149;-82
2021/01/04 00:17:17;;;;;;;16.85;10.43;;;;;;;0.67;90.69;101766.16;1797003;79;21171;-82
2021/01/04 00:19:55;;;;;;;17.20;10.33;;;;;;;0.69;90.84;101756.81;1715544;79;21521;-81
2021/01/04 00:22:30;;;;;;;19.55;11.25;;;;;;;0.69;90.68;101755.52;1797121;79;21574;-82
2021/01/04 00:25:12;;;;;;;16.35;9.83;;;;;;;0.68;90.64;101755.03;1797049;79;21234;-83
2021/01/04 00:27:49;;;;;;;15.93;10.35;;;;;;;0.68;90.71;101748.15;1795399;79;21900;-81
2021/01/04 00:30:24;;;;;;;18.45;11.08;;;;;;;0.69;90.68;101750.34;1797055;79;21179;-82
2021/01/04 00:32:52;;;;;;;18.00;10.25;;;;;;;0.72;90.72;101746.72;1797129;79;21156;-82
2021/01/04 00:35:20;;;;;;;15.68;9.83;;;;;;;0.75;90.70;101750.46;1763699;79;21527;-82
2021/01/04 00:38:18;;;;;;;15.70;9.98;;;;;;;0.78;90.72;101749.78;1797041;79;21219;-82
2021/01/04 00:41:15;;;;;;;16.07;9.80;;;;;;;0.78;90.62;101749.78;1794574;79;22110;-80
2021/01/04 00:43:51;;;;;;;15.60;9.55;;;;;;;0.74;90.38;101754.22;1795902;79;21183;-81
2021/01/04 00:46:26;;;;;;;17.50;9.28;;;;;;;0.71;90.44;101752.30;1796884;79;21148;-83
2021/01/04 00:49:01;;;;;;;16.50;10.72;;;;;;;0.71;90.41;101755.25;1795828;79;21171;-81
2021/01/04 00:51:33;;;;;;;14.30;9.58;;;;;;;0.67;90.37;101750.61;1796907;79;21581;-81
2021/01/04 00:54:01;;;;;;;14.13;9.83;;;;;;;0.67;90.37;101759.68;1797106;79;22095;-81
2021/01/04 00:56:44;;;;;;;15.35;10.15;;;;;;;0.63;90.32;101756.33;1763468;79;21198;-82
2021/01/04 00:59:44;;;;;;;14.75;9.73;;;;;;;0.63;90.43;101755.94;1797149;79;21546;-81
2021/01/04 01:02:56;;;;;;;15.95;9.33;;;;;;;0.62;90.48;101760.62;1796983;79;21160;-82
2021/01/04 01:05:50;;;;;;;16.60;9.70;;;;;;;0.60;90.40;101759.95;1796977;79;21566;-84
2021/01/04 01:08:25;;;;;;;13.90;9.30;;;;;;;0.55;90.45;101754.02;1721464;79;21910;-80
2021/01/04 01:11:06;;;;;;;14.05;8.75;;;;;;;0.48;90.66;101733.97;1796899;79;21438;-80
2021/01/04 01:13:59;;;;;;;16.10;9.73;;;;;;;0.62;90.80;101758.39;1796416;78;21160;-80
2021/01/04 01:16:51;;;;;;;18.40;9.45;;;;;;;0.67;90.79;101764.86;1796910;78;21163;-82
2021/01/04 01:19:29;;;;;;;15.48;9.53;;;;;;;0.69;90.75;101763.30;1796108;79;21124;-81
2021/01/04 01:21:58;;;;;;;15.13;9.38;;;;;;;0.75;90.76;101767.67;1791250;78;22902;-81
2021/01/04 01:24:26;;;;;;;14.65;9.50;;;;;;;0.76;90.71;101766.50;1795512;79;21215;-81
2021/01/04 01:27:33;;;;;;;14.35;9.13;;;;;;;0.80;90.61;101768.05;1796517;79;21135;-82
2021/01/04 01:30:18;;;;;;;15.88;9.78;;;;;;;0.81;90.51;101770.78;1796493;79;21140;-82
2021/01/04 01:33:18;;;;;;;13.58;9.23;;;;;;;0.83;90.44;101764.43;1795330;79;21151;-82
2021/01/04 01:36:05;;;;;;;17.82;10.45;;;;;;;0.82;90.34;101764.80;1796314;79;22076;-82
2021/01/04 01:39:16;;;;;;;16.23;9.80;;;;;;;0.80;90.37;101765.47;1796379;79;21171;-82
2021/01/04 01:42:14;;;;;;;16.10;10.50;;;;;;;0.79;90.45;101763.27;1796538;79;21119;-82
2021/01/04 01:45:09;;;;;;;16.20;9.83;;;;;;;0.80;90.36;101758.98;1796330;79;21222;-81
2021/01/04 01:48:23;;;;;;;18.00;11.48;;;;;;;0.81;90.35;101764.30;1772463;79;21183;-82
2021/01/04 01:51:06;;;;;;;19.20;11.88;;;;;;;0.79;90.35;101759.39;1722562;83;21894;-82
2021/01/04 01:54:26;;;;;;;17.10;11.53;;;;;;;0.84;90.32;101763.23;1872777;76;28433;-82
2021/01/04 01:57:34;;;;;;;18.23;10.70;;;;;;;0.84;90.43;101759.73;1859855;77;21135;-81
2021/01/04 02:00:24;;;;;;;19.52;11.80;;;;;;;0.90;90.33;101765.41;1859845;77;22761;-80
2021/01/04 02:03:20;;;;;;;17.82;11.78;;;;;;;0.91;90.22;101757.77;1859823;77;21124;-81
2021/01/04 02:06:08;;;;;;;22.48;11.78;;;;;;;0.95;90.15;101764.09;1830677;77;21143;-81
2021/01/04 02:08:43;;;;;;;19.92;12.37;;;;;;;0.95;90.06;101757.61;1859928;77;21156;-81
2021/01/04 02:11:55;;;;;;;18.45;11.53;;;;;;;0.93;90.00;101756.59;1860116;76;21096;-82
2021/01/04 02:14:50;;;;;;;19.95;12.07;;;;;;;0.91;89.96;101755.17;1860022;76;21880;-81
2021/01/04 02:17:49;;;;;;;21.62;12.43;;;;;;;0.90;89.90;101762.45;1859772;77;21431;-82
2021/01/04 02:20:51;;;;;;;23.75;12.43;;;;;;;0.89;89.90;101765.81;1859993;77;21539;-81
2021/01/04 02:23:44;;;;;;;18.05;11.53;;;;;;;0.86;89.80;101773.33;1859882;77;21116;-81
2021/01/04 02:26:24;;;;;;;19.87;11.70;;;;;;;0.86;89.86;101770.73;1860171;77;21523;-81
2021/01/04 02:29:04;;;;;;;20.62;12.93;;;;;;;0.84;89.74;101765.82;1827421;77;21888;-82
2021/01/04 02:31:34;;;;;;;20.27;12.45;;;;;;;0.82;89.70;101763.90;1859727;76;21645;-82
2021/01/04 02:34:02;;;;;;;23.15;13.18;;;;;;;0.81;89.77;101759.11;1859917;77;21148;-81
2021/01/04 02:36:32;;;;;;;21.55;13.35;;;;;;;0.83;89.78;101764.03;1859894;77;21605;-81
2021/01/04 02:39:17;;;;;;;19.07;11.63;;;;;;;0.81;89.68;101759.11;1859943;76;21163;-80
2021/01/04 02:42:07;;;;;;;21.10;12.25;;;;;;;0.81;89.66;101755.59;1859322;76;23117;-81
2021/01/04 02:44:34;;;;;;;21.12;13.38;;;;;;;0.79;89.62;101755.50;1859901;77;21219;-81
2021/01/04 02:47:33;;;;;;;18.42;12.28;;;;;;;0.78;89.65;101754.57;1859913;77;21124;-82
2021/01/04 02:50:11;;;;;;;19.40;12.40;;;;;;;0.79;89.60;101755.50;1859777;76;21729;-82
2021/01/04 02:53:11;;;;;;;21.50;12.28;;;;;;;0.80;89.61;101757.69;1845927;77;21140;-81
2021/01/04 02:56:27;;;;;;;19.00;13.25;;;;;;;0.78;89.54;101754.97;1825155;78;23014;-81
2021/01/04 02:59:14;;;;;;;21.00;12.75;;;;;;;0.72;89.42;101743.72;1825570;78;21132;-81
2021/01/04 03:02:06;;;;;;;18.80;11.78;;;;;;;0.73;89.51;101748.50;1794671;78;21487;-80
2021/01/04 03:04:35;;;;;;;21.80;13.28;;;;;;;0.67;89.47;101749.31;1819431;78;21218;-80
2021/01/04 03:07:28;;;;;;;20.32;13.10;;;;;;;0.66;89.61;101749.72;1824913;78;21115;-81
2021/01/04 03:09:56;;;;;;;22.52;13.03;;;;;;;0.67;89.64;101750.61;1825078;78;21880;-82
2021/01/04 03:12:28;;;;;;;21.17;12.20;;;;;;;0.69;89.71;101747.34;1824953;78;21632;-81
2021/01/04 03:15:40;;;;;;;21.45;13.08;;;;;;;0.69;89.66;101742.56;1825052;78;21100;-81
2021/01/04 03:18:37;;;;;;;22.05;13.75;;;;;;;0.67;89.60;101742.84;1775781;80;21618;-81
2021/01/04 03:21:05;;;;;;;23.35;13.98;;;;;;;0.67;89.62;101743.73;1776005;80;21195;-82
2021/01/04 03:23:32;;;;;;;24.47;13.38;;;;;;;0.68;89.64;101741.67;1775738;80;22171;-82
2021/01/04 03:26:13;;;;;;;22.70;13.98;;;;;;;0.66;89.61;101739.34;1775655;80;21680;-81
2021/01/04 03:28:40;;;;;;;24.25;13.15;;;;;;;0.66;89.62;101744.94;1775652;80;21613;-81
2021/01/04 03:31:07;;;;;;;19.50;12.47;;;;;;;0.67;89.70;101737.25;1775794;80;21132;-81
2021/01/04 03:33:34;;;;;;;24.87;13.15;;;;;;;0.70;89.78;101743.99;1775666;80;21199;-82
2021/01/04 03:36:01;;;;;;;20.50;13.22;;;;;;;0.74;89.81;101738.27;1775890;80;22017;-81
2021/01/04 03:38:31;;;;;;;21.35;13.50;;;;;;;0.77;89.76;101744.11;1775709;80;21195;-82
2021/01/04 03:40:57;;;;;;;23.55;13.90;;;;;;;0.83;89.83;101747.58;1775632;80;21144;-82
2021/01/04 03:43:24;;;;;;;23.77;14.10;;;;;;;0.85;89.70;101740.43;1775746;80;21224;-82
2021/01/04 03:45:51;;;;;;;21.60;12.85;;;;;;;0.88;89.72;101739.39;1775755;80;21630;-82
2021/01/04 03:48:18;;;;;;;21.95;12.82;;;;;;;0.90;89.65;101743.38;1783109;78;21978;-82
2021/01/04 03:50:46;;;;;;;21.30;12.25;;;;;;;0.95;89.70;101749.44;1824944;78;21123;-82
2021/01/04 03:53:13;;;;;;;21.87;13.55;;;;;;;0.92;89.43;101744.03;1843004;76;21109;-82
2021/01/04 03:55:41;;;;;;;24.18;12.60;;;;;;;0.91;89.44;101745.20;1859090;77;21640;-82
2021/01/04 03:58:09;;;;;;;19.85;12.93;;;;;;;0.94;89.59;101742.46;1859202;77;21064;-82
2021/01/04 04:00:36;;;;;;;18.98;12.03;;;;;;;0.97;89.54;101741.39;1859234;77;21882;-82
2021/01/04 04:03:04;;;;;;;18.52;12.03;;;;;;;1.02;89.52;101743.47;1859373;77;21147;-82
2021/01/04 04:05:31;;;;;;;22.70;12.70;;;;;;;0.96;89.28;101737.00;1859194;77;21568;-82
2021/01/04 04:08:01;;;;;;;24.85;14.28;;;;;;;0.92;89.25;101737.55;1859116;77;21199;-82
2021/01/04 04:10:28;;;;;;;19.65;13.03;;;;;;;0.95;89.34;101732.59;1826570;77;21144;-81
2021/01/04 04:12:55;;;;;;;21.02;12.93;;;;;;;0.92;89.23;101732.37;1859099;77;22877;-82
2021/01/04 04:15:22;;;;;;;22.82;13.15;;;;;;;0.91;89.21;101740.02;1859117;77;21869;-82
2021/01/04 04:17:49;;;;;;;21.52;12.47;;;;;;;0.92;89.27;101734.03;1859259;76;21582;-82
2021/01/04 04:20:23;;;;;;;21.12;12.70;;;;;;;0.91;89.28;101734.43;1859085;77;21159;-82
2021/01/04 04:22:51;;;;;;;19.45;11.38;;;;;;;0.94;89.39;101726.91;1859386;77;21128;-82
2021/01/04 04:25:19;;;;;;;19.10;12.53;;;;;;;0.96;89.28;101727.93;1859253;77;21940;-82
2021/01/04 04:27:46;;;;;;;19.20;11.90;;;;;;;0.96;89.26;101721.85;1859050;76;21186;-80
2021/01/04 04:30:24;;;;;;;21.90;12.23;;;;;;;0.96;89.29;101724.04;1859006;77;21210;-82
2021/01/04 04:32:56;;;;;;;18.95;11.12;;;;;;;0.97;89.24;101720.64;1859050;77;21178;-82
2021/01/04 04:35:24;;;;;;;24.00;12.83;;;;;;;0.96;89.19;101721.85;1858433;77;21515;-83
2021/01/04 04:37:51;;;;;;;21.00;11.68;;;;;;;0.96;89.14;101723.14;1859322;77;21812;-83
2021/01/04 04:40:24;;;;;;;18.90;11.93;;;;;;;0.96;89.15;101725.73;1859301;77;21148;-82
2021/01/04 04:43:13;;;;;;;19.98;12.03;;;;;;;1.02;89.18;101719.73;1811431;78;22806;-81
2021/01/04 04:45:40;;;;;;;18.40;11.97;;;;;;;0.99;89.16;101731.14;1797200;79;21088;-81
2021/01/04 04:48:45;;;;;;;16.90;11.45;;;;;;;1.01;89.12;101728.28;1792626;79;21905;-82
2021/01/04 04:51:20;;;;;;;20.30;12.55;;;;;;;1.05;89.15;101732.02;1796858;79;21160;-81
2021/01/04 04:54:10;;;;;;;16.90;11.28;;;;;;;1.08;89.10;101727.09;1796995;79;21214;-82
2021/01/04 04:56:48;;;;;;;17.42;11.28;;;;;;;1.07;89.07;101734.34;1796708;79;21155;-82
2021/01/04 04:59:37;;;;;;;19.35;11.63;;;;;;;1.05;88.94;101738.14;1797144;79;21343;-82
2021/01/04 05:02:28;;;;;;;19.07;11.73;;;;;;;1.07;89.06;101737.86;1796982;79;22861;-82
2021/01/04 05:05:12;;;;;;;16.10;10.78;;;;;;;1.10;89.11;101732.89;1795666;78;21160;-82
2021/01/04 05:07:56;;;;;;;16.93;11.70;;;;;;;1.12;89.00;101736.52;1797024;79;21167;-83
2021/01/04 05:10:29;;;;;;;17.92;10.93;;;;;;;1.12;88.94;101731.33;1797129;79;21131;-81
2021/01/04 05:13:17;;;;;;;18.15;11.95;;;;;;;1.14;88.91;101737.94;1795798;78;21618;-82
2021/01/04 05:16:05;;;;;;;17.15;10.90;;;;;;;1.16;88.93;101737.66;1796998;79;22091;-81
2021/01/04 05:19:04;;;;;;;20.23;11.93;;;;;;;1.15;88.86;101742.35;1796993;79;21628;-82
2021/01/04 05:21:45;;;;;;;20.52;11.63;;;;;;;1.17;88.89;101740.78;1796917;79;21555;-82
2021/01/04 05:24:29;;;;;;;18.62;12.03;;;;;;;1.22;88.94;101742.42;1796612;79;21202;-82
2021/01/04 05:27:35;;;;;;;18.50;11.88;;;;;;;1.24;88.96;101745.67;1776642;79;21139;-79
2021/01/04 05:30:20;;;;;;;22.30;12.78;;;;;;;1.24;88.83;101745.67;1796647;79;21886;-81
2021/01/04 05:32:58;;;;;;;18.75;11.28;;;;;;;1.26;88.71;101753.17;1796823;79;21537;-81
2021/01/04 05:35:27;;;;;;;18.42;10.88;;;;;;;1.22;88.51;101751.50;1796957;79;21159;-81
2021/01/04 05:38:28;;;;;;;15.35;9.95;;;;;;;1.22;88.59;101754.09;1738030;79;21207;-80
2021/01/04 05:41:26;;;;;;;17.50;11.57;;;;;;;1.20;88.43;101751.77;1796471;79;21160;-82
2021/01/04 05:44:08;;;;;;;19.27;11.22;;;;;;;1.12;88.35;101745.98;1788520;79;21894;-82
2021/01/04 05:46:50;;;;;;;21.62;12.88;;;;;;;1.13;88.56;101746.52;1755085;78;21156;-81
2021/01/04 05:49:34;;;;;;;19.82;12.25;;;;;;;1.10;88.39;101743.27;1757429;81;21152;-81
2021/01/04 05:52:01;;;;;;;20.05;12.50;;;;;;;1.07;88.44;101743.05;1757429;81;21139;-82
2021/01/04 05:54:31;;;;;;;16.42;11.08;;;;;;;1.00;88.54;101737.27;1756906;81;21163;-81
2021/01/04 05:57:17;;;;;;;15.93;10.85;;;;;;;1.07;88.51;101746.01;1756813;81;21680;-81
2021/01/04 05:59:53;;;;;;;14.70;10.75;;;;;;;1.03;88.42;101746.16;1756576;81;21411;-81
2021/01/04 06:02:34;;;;;;;17.02;10.38;;;;;;;1.01;88.48;101745.13;1756811;81;21558;-82
2021/01/04 06:05:16;;;;;;;17.48;11.57;;;;;;;1.02;88.58;101751.25;1756787;81;21132;-82
2021/01/04 06:07:44;;;;;;;16.85;11.08;;;;;;;1.04;88.61;101750.97;1756670;81;21183;-80
2021/01/04 06:10:24;;;;;;;19.57;11.80;;;;;;;1.06;88.67;101749.00;1756681;80;22096;-80
2021/01/04 06:12:51;;;;;;;19.25;12.10;;;;;;;1.04;88.54;101746.68;1756575;80;21183;-82
2021/01/04 06:15:32;;;;;;;17.57;11.10;;;;;;;1.03;88.62;101750.05;1756568;81;21136;-81
2021/01/04 06:18:13;;;;;;;17.23;11.75;;;;;;;1.04;88.62;101749.67;1756641;81;21179;-81
2021/01/04 06:20:54;;;;;;;19.35;12.13;;;;;;;1.06;88.68;101754.19;1744107;81;21196;-80
2021/01/04 06:23:30;;;;;;;18.95;11.90;;;;;;;1.07;88.70;101755.08;1756480;81;21893;-80
2021/01/04 06:26:01;;;;;;;16.00;10.60;;;;;;;1.06;88.66;101759.37;1756474;80;21183;-81
2021/01/04 06:28:28;;;;;;;20.37;11.35;;;;;;;1.03;88.58;101757.82;1756085;81;21207;-81
2021/01/04 06:31:03;;;;;;;17.57;11.48;;;;;;;1.01;88.56;101757.20;1722005;81;21220;-82
2021/01/04 06:33:33;;;;;;;16.52;11.22;;;;;;;0.99;88.67;101760.95;1756014;81;21194;-81
2021/01/04 06:36:04;;;;;;;19.15;12.60;;;;;;;1.00;88.66;101765.37;1756494;81;21825;-82
2021/01/04 06:38:34;;;;;;;22.55;13.38;;;;;;;0.95;88.62;101762.40;1756319;81;22329;-82
2021/01/04 06:41:17;;;;;;;22.62;13.05;;;;;;;0.96;88.76;101766.81;1756518;81;21191;-83
2021/01/04 06:43:44;;;;;;;23.00;13.35;;;;;;;0.97;88.78;101773.80;1756594;80;21585;-80
2021/01/04 06:46:43;;;;;;;18.27;12.28;;;;;;;0.98;88.77;101781.20;1756370;81;21120;-81
2021/01/04 06:49:19;;;;;;;24.00;14.63;;;;;;;0.96;88.70;101775.00;1756471;81;21849;-82
2021/01/04 06:52:27;;;;;;;22.22;14.68;;;;;;;0.95;88.79;101775.36;1756529;81;21152;-81
2021/01/04 06:55:31;;;;;;;31.68;17.30;;;;;;;0.98;88.79;101779.91;1756750;81;21253;-81
2021/01/04 06:58:33;;;;;;;26.62;16.07;;;;;;;0.93;88.74;101774.73;1756611;80;21187;-81
2021/01/04 07:01:33;;;;;;;24.02;14.80;;;;;;;0.92;88.83;101790.69;1756720;81;21247;-82
2021/01/04 07:04:29;;;;;;;19.37;12.50;;;;;;;0.90;88.84;101779.30;1756418;80;21889;-79
2021/01/04 07:07:31;;;;;;;20.68;12.05;;;;;;;0.91;88.89;101781.48;1756211;81;21171;-82
2021/01/04 07:10:09;;;;;;;22.37;13.43;;;;;;;0.92;88.92;101782.91;1756650;81;21411;-79
2021/01/04 07:13:06;;;;;;;24.25;14.58;;;;;;;0.91;88.84;101779.80;1740848;81;21231;-79
2021/01/04 07:15:33;;;;;;;24.63;14.90;;;;;;;0.89;88.86;101790.43;1753524;80;21171;-81
2021/01/04 07:18:20;;;;;;;20.97;12.23;;;;;;;0.90;88.93;101788.73;1756661;81;21936;-81
2021/01/04 07:21:27;;;;;;;19.42;12.13;;;;;;;0.92;89.00;101793.28;1755838;81;21108;-82
2021/01/04 07:24:21;;;;;;;20.90;12.00;;;;;;;0.93;88.88;101800.27;1756636;81;21163;-82
2021/01/04 07:27:16;;;;;;;15.40;9.23;;;;;;;0.92;88.84;101804.95;1786761;80;21128;-81
2021/01/04 07:30:10;;;;;;;18.30;11.95;;;;;;;0.92;88.91;101808.84;1787775;80;21570;-82
2021/01/04 07:33:06;;;;;;;16.00;10.88;;;;;;;0.91;88.90;101804.82;1787880;80;21845;-82
2021/01/04 07:35:48;;;;;;;15.90;10.00;;;;;;;0.94;88.83;101803.78;1811016;78;22935;-83
2021/01/04 07:38:39;;;;;;;18.25;10.80;;;;;;;0.91;88.92;101807.41;1784398;79;21161;-82
2021/01/04 07:41:20;;;;;;;18.60;11.57;;;;;;;0.89;88.80;101808.58;1797188;79;21896;-81
2021/01/04 07:44:08;;;;;;;18.87;11.80;;;;;;;0.84;88.70;101806.00;1796856;79;21155;-82
2021/01/04 07:47:17;;;;;;;22.90;12.35;;;;;;;0.83;88.87;101805.90;1797090;79;21156;-82
2021/01/04 07:49:55;;;;;;;22.02;12.73;;;;;;;0.84;88.86;101808.98;1796840;79;21168;-81
2021/01/04 07:52:50;;;;;;;23.92;13.50;;;;;;;0.87;89.00;101811.84;1757165;79;21354;-82
2021/01/04 07:55:47;;;;;;;26.25;13.50;;;;;;;0.89;89.00;101811.17;1796883;79;21950;-84
2021/01/04 07:58:51;;;;;;;25.72;13.90;;;;;;;0.91;88.99;101810.90;1797010;79;21178;-84
2021/01/04 08:01:52;;;;;;;21.45;13.75;;;;;;;0.95;89.01;101814.65;1792042;78;25735;-87
2021/01/04 08:04:37;;;;;;;22.95;12.95;;;;;;;0.97;88.92;101819.16;1796959;79;21231;-88
2021/01/04 08:07:52;;;;;;;19.10;11.75;;;;;;;0.88;88.79;101800.30;1797069;79;21633;-87
2021/01/04 08:10:55;;;;;;;;;;;;;;;0.97;88.81;101818.27;1799534;79;22946;-88
2021/01/04 08:14:00;;;;;;;22.65;12.80;;;;;;;0.95;88.72;101813.35;1797005;79;20696;-87
2021/01/04 08:16:50;;;;;;;22.20;11.65;;;;;;;0.93;88.79;101816.21;1797009;79;21116;-86
2021/01/04 08:19:17;;;;;;;21.87;13.72;;;;;;;0.95;88.90;101815.94;1764678;79;21152;-85
2021/01/04 08:22:01;;;;;;;17.70;11.55;;;;;;;1.01;88.97;101820.72;1796750;79;21175;-85
2021/01/04 08:24:43;;;;;;;18.07;11.73;;;;;;;1.03;88.90;101821.74;1797262;79;21962;-86
2021/01/04 08:27:48;;;;;;;17.45;11.28;;;;;;;1.05;88.85;101825.36;1789675;79;21064;-86
2021/01/04 08:30:30;;;;;;;15.65;10.40;;;;;;;1.06;88.78;101823.30;1796184;79;21156;-86
2021/01/04 08:33:23;;;;;;;19.07;11.30;;;;;;;1.01;88.57;101829.79;1797208;79;21167;-86
2021/01/04 08:35:50;;;;;;;18.05;11.33;;;;;;;0.97;88.67;101832.12;1756142;80;21136;-87
2021/01/04 08:38:32;;;;;;;17.95;12.00;;;;;;;1.02;88.85;101827.33;1788308;80;21838;-86
2021/01/04 08:41:17;;;;;;;19.17;12.18;;;;;;;1.03;88.73;101833.41;1788203;80;21143;-86
2021/01/04 08:43:47;;;;;;;16.12;11.30;;;;;;;1.03;88.75;101825.23;1788496;80;21144;-87
2021/01/04 08:46:26;;;;;;;17.15;11.30;;;;;;;1.02;88.67;101823.44;1787850;80;21590;-86
2021/01/04 08:49:07;;;;;;;19.37;11.28;;;;;;;1.06;88.83;101829.38;1785870;80;21171;-86
2021/01/04 08:51:41;;;;;;;17.65;11.73;;;;;;;1.09;88.62;101827.05;1780826;80;23060;-87
2021/01/04 08:54:31;;;;;;;18.87;11.40;;;;;;;1.07;88.63;101827.31;1787716;80;21065;-86
2021/01/04 08:57:09;;;;;;;16.07;11.00;;;;;;;1.10;88.66;101834.02;1787903;80;21116;-86
2021/01/04 08:59:36;;;;;;;17.80;11.55;;;;;;;1.11;88.60;101828.47;1749156;81;21172;-85
2021/01/04 09:02:34;;;;;;;21.25;13.50;;;;;;;1.13;88.80;101834.28;1756543;81;21199;-87
2021/01/04 09:05:04;;;;;;;20.92;12.60;;;;;;;1.15;88.73;101840.89;1756547;81;21888;-86
2021/01/04 09:07:31;;;;;;;23.40;14.87;;;;;;;1.13;88.54;101839.87;1756359;81;21575;-87
2021/01/04 09:10:22;;;;;;;22.80;13.30;;;;;;;1.12;88.51;101836.34;1756687;81;21175;-90
2021/01/04 09:12:52;;;;;;;18.98;12.60;;;;;;;1.15;88.60;101844.78;1756683;81;21112;-81
2021/01/04 09:15:27;;;;;;;20.72;13.03;;;;;;;1.15;88.55;101845.68;1756524;81;21132;-87
2021/01/04 09:18:05;;;;;;;16.77;11.70;;;;;;;1.14;88.49;101839.96;1756648;81;21898;-87
2021/01/04 09:20:52;;;;;;;15.95;11.00;;;;;;;1.16;88.63;101846.21;1756527;81;21622;-86
2021/01/04 09:23:34;;;;;;;17.52;11.38;;;;;;;1.20;88.55;101834.36;1756805;81;21149;-88
2021/01/04 09:26:08;;;;;;;16.50;10.85;;;;;;;1.25;88.63;101838.64;1756761;81;21666;-92
2021/01/04 09:28:47;;;;;;;17.42;10.35;;;;;;;1.26;88.37;101828.39;1746800;81;21164;-87
2021/01/04 09:31:17;;;;;;;17.67;10.55;;;;;;;1.28;88.38;101833.30;1756745;81;21941;-86
2021/01/04 09:33:48;;;;;;;18.82;11.18;;;;;;;1.33;88.42;101829.77;1756663;81;21161;-87
2021/01/04 09:36:15;;;;;;;15.18;10.13;;;;;;;1.34;88.29;101830.30;1756810;80;21173;-87
2021/01/04 09:38:42;;;;;;;13.88;10.05;;;;;;;1.33;88.18;101831.06;1756845;81;21451;-80
2021/01/04 09:41:10;;;;;;;18.48;11.53;;;;;;;1.31;88.16;101828.38;1756967;81;21180;-87
2021/01/04 09:43:39;;;;;;;18.15;10.48;;;;;;;1.30;88.12;101827.84;1756877;81;22843;-86
2021/01/04 09:46:47;;;;;;;18.37;11.00;;;;;;;1.33;88.20;101829.40;1756858;81;21211;-86
2021/01/04 09:49:25;;;;;;;16.45;10.80;;;;;;;1.32;88.03;101833.16;1573600;90;21739;-84
2021/01/04 09:52:26;;;;;;;19.45;13.05;;;;;;;1.38;88.05;101839.23;1889934;75;22696;-87
2021/01/04 09:55:02;;;;;;;22.45;12.82;;;;;;;1.33;88.01;101841.44;1863191;77;21123;-89
2021/01/04 09:57:31;;;;;;;19.02;11.73;;;;;;;1.32;88.04;101839.25;1863393;77;21881;-87
2021/01/04 09:59:58;;;;;;;20.68;12.00;;;;;;;1.31;87.97;101836.52;1863245;77;21151;-87
2021/01/04 10:02:29;;;;;;;19.55;12.07;;;;;;;1.36;88.17;101835.21;1863148;77;21167;-87
2021/01/04 10:05:12;;;;;;;22.48;12.03;;;;;;;1.40;88.08;101833.37;1863177;77;21144;-87
2021/01/04 10:07:39;;;;;;;21.60;12.10;;;;;;;1.43;88.03;101837.91;1863238;77;21131;-86
2021/01/04 10:10:17;;;;;;;15.38;10.75;;;;;;;1.46;88.04;101828.66;1832863;77;21866;-85
2021/01/04 10:12:44;;;;;;;16.52;10.53;;;;;;;1.49;87.91;101830.61;1863094;77;21151;-86
2021/01/04 10:15:29;;;;;;;18.17;11.15;;;;;;;1.50;87.85;101821.66;1863093;77;21539;-86
2021/01/04 10:18:06;;;;;;;17.17;10.53;;;;;;;1.53;87.96;101819.67;1863020;77;21155;-86
2021/01/04 10:20:51;;;;;;;16.93;11.15;;;;;;;1.60;87.85;101812.89;1839942;77;22883;-87
2021/01/04 10:23:36;;;;;;;16.32;10.10;;;;;;;1.52;88.44;101813.96;1789523;78;21113;-87
2021/01/04 10:26:03;;;;;;;15.55;10.72;;;;;;;1.50;88.99;101817.76;1819471;78;22069;-86
2021/01/04 10:28:32;;;;;;;17.40;11.57;;;;;;;1.51;88.02;101805.68;1788143;78;21124;-87
2021/01/04 10:31:17;;;;;;;22.65;14.05;;;;;;;1.51;87.87;101806.98;1820228;78;21117;-87
2021/01/04 10:33:45;;;;;;;23.52;13.60;;;;;;;1.47;87.83;101808.42;1820013;78;21590;-85
2021/01/04 10:36:21;;;;;;;23.20;14.53;;;;;;;1.53;87.91;101806.70;1820191;78;21531;-85
2021/01/04 10:39:01;;;;;;;22.62;13.15;;;;;;;1.55;87.90;101800.83;1820145;78;21976;-87
2021/01/04 10:41:30;;;;;;;24.90;14.90;;;;;;;1.61;87.94;101807.30;1819979;78;21152;-86
2021/01/04 10:44:06;;;;;;;18.67;11.95;;;;;;;1.64;87.88;101797.17;1819954;78;21629;-86
2021/01/04 10:46:49;;;;;;;20.10;12.65;;;;;;;1.70;87.88;101801.12;1819974;78;21127;-86
2021/01/04 10:49:34;;;;;;;24.40;14.23;;;;;;;1.77;87.86;101796.43;1755678;78;21116;-85
2021/01/04 10:52:02;;;;;;;32.17;14.87;;;;;;;1.77;87.63;101802.92;1820108;78;21883;-87
2021/01/04 10:54:42;;;;;;;20.52;12.58;;;;;;;1.81;87.70;101800.66;1788383;78;21175;-87
2021/01/04 10:57:24;;;;;;;18.45;12.37;;;;;;;1.85;87.66;101799.21;1820226;78;21105;-86
2021/01/04 11:00:17;;;;;;;20.27;13.10;;;;;;;1.86;87.61;101804.53;1819986;78;21164;-86
2021/01/04 11:02:46;;;;;;;21.57;13.43;;;;;;;1.88;87.61;101804.66;1818906;78;21195;-86
2021/01/04 11:05:16;;;;;;;18.73;10.72;;;;;;;1.97;87.71;101805.73;1820095;78;21887;-87
2021/01/04 11:07:43;;;;;;;20.72;12.68;;;;;;;1.98;87.52;101805.85;1820006;78;21593;-87
2021/01/04 11:10:30;;;;;;;28.23;16.20;;;;;;;2.01;87.45;101809.06;1820119;78;21148;-87
2021/01/04 11:12:58;;;;;;;28.67;19.62;;;;;;;1.98;87.25;101811.05;1819932;78;21688;-85
2021/01/04 11:15:28;;;;;;;22.75;14.53;;;;;;;1.92;87.12;101805.39;1820098;78;21140;-85
2021/01/04 11:18:08;;;;;;;30.70;18.32;;;;;;;1.87;87.15;101810.61;1819946;78;22814;-87
2021/01/04 11:20:37;;;;;;;22.00;15.30;;;;;;;1.84;87.28;101804.80;1819775;78;21207;-86
2021/01/04 11:23:13;;;;;;;23.55;15.65;;;;;;;1.84;87.20;101811.30;1819964;78;21626;-86
2021/01/04 11:25:41;;;;;;;24.32;17.55;;;;;;;1.78;87.12;101806.91;1819963;78;21148;-86
2021/01/04 11:28:08;;;;;;;22.42;15.95;;;;;;;1.80;87.36;101801.44;1820098;78;21536;-87
2021/01/04 11:30:36;;;;;;;20.20;13.65;;;;;;;1.85;87.41;101800.11;1819837;78;21950;-87
2021/01/04 11:33:03;;;;;;;21.15;13.10;;;;;;;1.83;87.26;101800.39;1819371;78;21204;-87
2021/01/04 11:35:31;;;;;;;22.00;13.58;;;;;;;1.86;87.33;101804.89;1819550;78;21559;-87
2021/01/04 11:37:58;;;;;;;18.75;13.05;;;;;;;1.89;87.36;101809.03;1819380;78;21649;-87
2021/01/04 11:40:26;;;;;;;17.55;11.68;;;;;;;1.89;87.31;101808.63;1819444;78;21140;-85
2021/01/04 11:42:55;;;;;;;23.10;14.05;;;;;;;1.89;87.23;101807.34;1819447;78;22885;-85
2021/01/04 11:45:22;;;;;;;25.32;16.23;;;;;;;1.85;87.12;101805.70;1819375;78;21253;-87
2021/01/04 11:47:50;;;;;;;25.43;14.28;;;;;;;1.82;87.11;101811.58;1819298;78;21595;-87
2021/01/04 11:50:18;;;;;;;26.48;15.30;;;;;;;1.79;87.15;101807.44;1819426;78;21280;-87
2021/01/04 11:52:45;;;;;;;30.17;15.48;;;;;;;1.69;87.01;101810.08;1819500;78;21175;-87
2021/01/04 11:55:13;;;;;;;33.48;19.42;;;;;;;1.54;87.17;101786.07;1819444;78;22827;-88
2021/01/04 11:57:41;;;;;;;31.00;17.42;;;;;;;1.69;87.37;101807.12;1819267;78;21575;-86
2021/01/04 12:00:10;;;;;;;29.65;17.62;;;;;;;1.68;87.24;101796.61;1819418;78;21148;-86
2021/01/04 12:02:37;;;;;;;23.18;13.65;;;;;;;1.64;87.18;101793.27;1819310;78;21619;-86
2021/01/04 12:05:06;;;;;;;29.35;18.37;;;;;;;1.64;87.28;101795.47;1787696;78;21199;-86
2021/01/04 12:07:33;;;;;;;29.75;15.78;;;;;;;1.62;87.20;101803.53;1787697;78;21956;-86
2021/01/04 12:10:00;;;;;;;27.40;17.15;;;;;;;1.62;87.31;101796.14;1819256;78;21554;-87
2021/01/04 12:12:27;;;;;;;29.63;16.60;;;;;;;1.67;87.44;101794.78;1819243;78;21622;-87
2021/01/04 12:14:57;;;;;;;31.15;16.87;;;;;;;1.67;87.22;101797.02;1819367;78;21167;-87
2021/01/04 12:17:24;;;;;;;25.57;15.35;;;;;;;1.60;87.12;101797.31;1819460;78;21215;-87
2021/01/04 12:19:53;;;;;;;27.87;15.75;;;;;;;1.56;87.12;101799.17;1821418;78;21892;-87
2021/01/04 12:22:21;;;;;;;24.90;16.15;;;;;;;1.56;87.26;101801.77;1758159;81;21194;-87